Fairhaven, MA (02719)

1:06 PM EDT on August 30, 2016 (GMT -0400)
Fairhaven Center | | Change Station

Elev 15 ft 41.64 °N, 70.90 °W | Updated 1 second ago

Mostly Cloudy
Mostly Cloudy
78.6 °F
Feels Like 80 °F
N
1.0
Wind Variable Wind from SSW
Gusts 0.0 mph

Today
High -- | Low -- °F
--% Chance of Precip.
Yesterday
High -- | Low -- °F
Precip. -- in
Pressure 30.12 in
Visibility 10.0 miles
Clouds Mostly Cloudy 4500 ft
Heat Index 80 °F
Dew Point 63 °F
Humidity 59%
Rainfall 0.00 in
Snow Depth Not available.
6:07 AM 7:19 PM
Waning Crescent, 3% visible
METAR KEWB 301653Z 18007KT 10SM BKN045 27/15 A3012 RMK AO2 SLP199 T02720150
Pressure 30.12 in
Visibility 10.0 miles
Clouds Mostly Cloudy 4500 ft
Heat Index 80 °F
Dew Point 63 °F
Humidity 59%
Rainfall 0.00 in
Snow Depth Not available.
6:07 AM 7:19 PM
Waning Crescent, 3% visible
METAR KEWB 301653Z 18007KT 10SM BKN045 27/15 A3012 RMK AO2 SLP199 T02720150

10-Day Weather Forecast

Almanac

Astronomy

Aug. 30, 2016 Rise Set
Actual Time
Civil Twilight
Nautical Twilight
Astronomical Twilight
Moon
Length of Visible Light
Length of Day
Tomorrow will be .
, % of the Moon is Illuminated

Today's Extremes

State Highs State Lows

Community

WunderPhotos

Upload Photos

1,935,845 photos uploaded!

WunderBlog® & News

Nearby

Air Quality

  Air Quality AQ Index Pollutant
Not available.

Snow Depth

Station Depth Elevation

Earthquake Activity

City Distance Mag. Time & Date
Minimum magnitude displayed is 2.5.

Coastal Water Temperatures

Place Temperature

Stations

Nearby Weather Stations

Station Location Temp. Windchill Dew Point Humidity Wind Precip. Elev Updated Type
                   

Watches & Warnings

There are currently no watches in effect.